Glasgow, KY

5:35 PM CST on January 19, 2017 (GMT -0600)
Scout Reservation | | Change Station

Elev 780 ft 36.90 °N, 85.88 °W | Updated 48 seconds ago

Rain
Rain
55.5 °F
Feels Like 55.5 °F
N
0.7
Wind Variable Wind from East
Gusts 2.3 mph

Today
High -- | Low -- °F
--% Chance of Precip.
Yesterday
High -- | Low -- °F
Precip. -- in
Pressure 29.80 in
Visibility 5.0 miles
Clouds Overcast 700 ft
Dew Point 55 °F
Humidity 98%
Rainfall 0.99 in
Snow Depth Not available.
6:54 AM 4:55 PM
Waning Gibbous, 50% visible
METAR KBWG 192253Z AUTO 00000KT 5SM -RA BR OVC007 13/13 A2980 RMK AO2 CIG 004V010 SLP090 P0003 T01330128
Pressure 29.80 in
Visibility 5.0 miles
Clouds Overcast 700 ft
Dew Point 55 °F
Humidity 98%
Rainfall 0.99 in
Snow Depth Not available.
6:54 AM 4:55 PM
Waning Gibbous, 50% visible
METAR KBWG 192253Z AUTO 00000KT 5SM -RA BR OVC007 13/13 A2980 RMK AO2 CIG 004V010 SLP090 P0003 T01330128

Get Your Daily Forecast Email!

Thanks for signing up!

Be on the lookout for a verification email in your inbox.

You'll start receiving the daily forecast at 8 AM.

×

10-Day Weather Forecast

Almanac

Astronomy

Jan. 19, 2017 Rise Set
Actual Time
Civil Twilight
Nautical Twilight
Astronomical Twilight
Moon
Length of Visible Light
Length of Day
Tomorrow will be .
, % of the Moon is Illuminated

Today's Extremes

State Highs State Lows

Community

WunderPhotos

Upload Photos

1,962,540 photos uploaded!

WunderBlog® & News

Nearby

Air Quality

  Air Quality AQ Index Pollutant
Not available.

Snow Depth

Station Depth Elevation

Earthquake Activity

City Distance Mag. Time & Date
Minimum magnitude displayed is 2.5.

Coastal Water Temperatures

Place Temperature

Stations

Nearby Weather Stations

Station Location Temp. Windchill Dew Point Humidity Wind Precip. Elev Updated Type
                   

Watches & Warnings

There are currently no watches in effect.